logo
Search for airport 
image banner adimage banner adimage banner ad
image banner ad

LBBO - Bohot-Lm

Located in Pleven, Bulgaria

ICAO - LBBO, IATA -

Data provided by Airmate  

General information

Coordinates: N43°18'25" E24°41'30"
Elevation is 1161 feet MSL.
 
View others Airports in Pleven

Operational data

Special qualification required
Current time UTC:
Current local time:
Weather at : LBPL - Dolna Mitropolia ( 22 km )
METAR: LBPL 251500Z 31014KT 9999 SCT040 BKN100 29/16 Q1005
View NOTAMs / SUP AIP / TFR affecting this airport [VIEW]
Communications frequencies: [VIEW]

Runways:

RWY identifierQFULength (ft)Width (ft)SurfaceLDA (ft)
0996°144482CONC+ASPH1444
27144482CONC+ASPH1444

Airport contact information

Address: Pleven Bulgaria

Satellite view of LBBO